Time;durP1;ratioP1;P1;durP2;ratioP2;P2;SDS_P1;SDS_P2;PMS_P1;PMS_P2;Temp;Humidity;BMP_temperature;BMP_pressure;BME280_temperature;BME280_humidity;BME280_pressure;Samples;Min_cycle;Max_cycle;Signal;HPM_P1;HPM_P2
2022/08/01 00:01:39;;;;;;;3.40;3.10;;;;;;;22.54;67.46;98132.97;4206585;28;20660;-85
2022/08/01 00:03:43;;;;;;;3.10;2.80;;;;;;;22.49;67.36;98138.00;4224926;28;20630;-85
2022/08/01 00:05:46;;;;;;;4.57;2.93;;;;;;;22.41;67.61;98130.06;4197780;28;21239;-85
2022/08/01 00:07:49;;;;;;;2.67;2.47;;;;;;;22.37;67.68;98138.56;4187061;28;20625;-85
2022/08/01 00:09:54;;;;;;;3.30;3.00;;;;;;;22.29;68.41;98136.78;4187535;28;20707;-85
2022/08/01 00:11:57;;;;;;;3.70;3.30;;;;;;;22.25;67.78;98129.34;4202220;28;22803;-85
2022/08/01 00:14:11;;;;;;;3.37;3.00;;;;;;;22.20;68.43;98138.84;4205170;28;20657;-85
2022/08/01 00:16:15;;;;;;;4.53;3.10;;;;;;;22.12;69.26;98133.56;4205902;28;20629;-85
2022/08/01 00:18:18;;;;;;;4.10;3.40;;;;;;;22.05;68.44;98137.91;4207468;28;20638;-85
2022/08/01 00:20:21;;;;;;;4.70;3.00;;;;;;;21.96;68.73;98131.81;4207041;28;20773;-85
2022/08/01 00:22:24;;;;;;;4.77;3.07;;;;;;;21.91;69.09;98130.69;4201569;28;20640;-85
2022/08/01 00:24:27;;;;;;;4.23;3.63;;;;;;;21.87;68.09;98130.19;4194247;28;20718;-85
2022/08/01 00:26:32;;;;;;;5.20;2.97;;;;;;;21.88;69.66;98131.03;4202358;28;20628;-85
2022/08/01 00:28:35;;;;;;;5.50;3.47;;;;;;;21.84;70.39;98135.03;4206746;28;20633;-85
2022/08/01 00:30:38;;;;;;;5.10;3.00;;;;;;;21.86;68.55;98138.34;4203679;28;20707;-85
2022/08/01 00:32:42;;;;;;;3.43;2.83;;;;;;;21.87;68.70;98142.66;4224841;27;22889;-85
2022/08/01 00:34:45;;;;;;;4.00;3.43;;;;;;;21.90;68.63;98142.31;4191438;28;21313;-85
2022/08/01 00:36:48;;;;;;;3.40;3.10;;;;;;;21.88;68.74;98137.16;4210709;28;20635;-85
2022/08/01 00:38:51;;;;;;;5.27;3.13;;;;;;;21.86;69.25;98138.34;4201536;28;20725;-85
2022/08/01 00:40:54;;;;;;;4.63;3.50;;;;;;;21.86;68.81;98135.69;4202334;28;20726;-85
2022/08/01 00:42:59;;;;;;;4.30;3.27;;;;;;;21.84;68.88;98138.50;4207029;28;21886;-85
2022/08/01 00:45:02;;;;;;;6.80;3.43;;;;;;;21.79;69.51;98142.69;4209349;28;20703;-85
2022/08/01 00:47:05;;;;;;;3.73;3.10;;;;;;;21.76;70.03;98140.38;4206635;28;20630;-85
2022/08/01 00:49:08;;;;;;;4.43;3.20;;;;;;;21.75;69.71;98141.38;4217721;28;21179;-85
2022/08/01 00:51:13;;;;;;;6.23;3.20;;;;;;;21.72;69.80;98144.38;4220206;28;21294;-85
2022/08/01 00:53:16;;;;;;;3.43;3.13;;;;;;;21.70;68.36;98143.72;4193270;28;20636;-85
2022/08/01 00:55:21;;;;;;;3.73;3.40;;;;;;;21.69;69.60;98150.03;4205140;28;20629;-85
2022/08/01 00:57:24;;;;;;;3.53;3.10;;;;;;;21.65;67.72;98143.44;4189692;28;20629;-85
2022/08/01 00:59:49;;;;;;;3.97;3.20;;;;;;;21.64;69.00;98138.28;4196003;28;20674;-85
2022/08/01 01:01:52;;;;;;;3.83;3.50;;;;;;;21.61;68.71;98144.75;4205613;28;20718;-85
2022/08/01 01:03:56;;;;;;;4.97;3.17;;;;;;;21.61;68.44;98147.41;4205411;28;21248;-85
2022/08/01 01:06:12;;;;;;;5.50;3.13;;;;;;;21.61;68.83;98149.25;4188095;28;20638;-85
2022/08/01 01:08:20;;;;;;;3.90;3.20;;;;;;;21.61;69.58;98154.56;4222403;28;20629;-85
2022/08/01 01:10:32;;;;;;;4.13;3.73;;;;;;;21.55;69.17;98148.09;4192920;28;20980;-85
2022/08/01 01:12:38;;;;;;;4.23;3.20;;;;;;;21.52;70.41;98143.13;4220696;28;20631;-85
2022/08/01 01:14:48;;;;;;;4.03;3.63;;;;;;;21.53;69.65;98155.41;4193051;28;21003;-85
2022/08/01 01:16:53;;;;;;;3.90;3.40;;;;;;;21.52;70.01;98151.09;4209700;28;20647;-85
2022/08/01 01:18:59;;;;;;;3.53;3.23;;;;;;;21.52;70.57;98152.94;4219221;28;21066;-85
2022/08/01 01:21:10;;;;;;;4.13;3.10;;;;;;;21.53;71.01;98152.75;4207903;28;20627;-85
2022/08/01 01:23:25;;;;;;;4.13;3.60;;;;;;;21.52;70.71;98148.44;4209838;28;21792;-85
2022/08/01 01:25:46;;;;;;;4.07;3.60;;;;;;;21.48;69.09;98155.06;4208532;28;20630;-85
2022/08/01 01:27:52;;;;;;;4.03;3.10;;;;;;;21.41;69.86;98154.09;4214872;28;20635;-85
2022/08/01 01:29:57;;;;;;;4.07;3.37;;;;;;;21.31;69.69;98158.75;4223942;27;20637;-85
2022/08/01 01:32:07;;;;;;;3.47;3.17;;;;;;;21.28;69.48;98153.78;4196940;28;21048;-85
2022/08/01 01:34:12;;;;;;;4.07;3.67;;;;;;;21.25;70.39;98157.78;4207003;28;20645;-85
2022/08/01 01:36:17;;;;;;;5.63;3.53;;;;;;;21.25;69.52;98161.25;4206621;28;20623;-85
2022/08/01 01:38:22;;;;;;;3.73;3.43;;;;;;;21.24;70.91;98161.41;4219931;28;20691;-85
2022/08/01 01:40:26;;;;;;;5.13;3.80;;;;;;;21.24;71.08;98156.09;4206550;28;20645;-85
2022/08/01 01:42:31;;;;;;;4.07;3.53;;;;;;;21.26;71.00;98162.06;4213984;28;20649;-85
2022/08/01 01:44:35;;;;;;;4.73;3.93;;;;;;;21.26;72.19;98168.22;4193017;28;20641;-85
2022/08/01 01:46:40;;;;;;;4.23;3.80;;;;;;;21.27;71.27;98163.75;4209331;28;20634;-85
2022/08/01 01:48:44;;;;;;;4.40;3.80;;;;;;;21.29;71.20;98159.94;4192102;28;20648;-85
2022/08/01 01:50:49;;;;;;;4.40;3.70;;;;;;;21.31;70.59;98164.06;4200853;28;21258;-85
2022/08/01 01:52:53;;;;;;;4.13;3.60;;;;;;;21.34;71.88;98171.66;4208472;28;20684;-85
2022/08/01 01:54:57;;;;;;;4.10;3.17;;;;;;;21.38;70.36;98170.34;4192636;28;21226;-85
2022/08/01 01:57:01;;;;;;;6.00;3.83;;;;;;;21.40;71.02;98173.66;4187935;28;20633;-85
2022/08/01 01:59:05;;;;;;;4.67;3.50;;;;;;;21.42;70.48;98170.84;4220362;28;21058;-85
2022/08/01 02:01:08;;;;;;;4.00;3.50;;;;;;;21.39;71.42;98174.66;4221499;27;21041;-85
2022/08/01 02:03:19;;;;;;;6.70;4.00;;;;;;;21.37;71.31;98176.66;4207516;28;20665;-85
2022/08/01 02:05:22;;;;;;;4.97;3.37;;;;;;;21.34;70.88;98179.63;4205806;28;20641;-85
2022/08/01 02:07:26;;;;;;;5.20;3.50;;;;;;;21.33;71.73;98174.50;4209529;28;21239;-85
2022/08/01 02:09:30;;;;;;;4.67;4.10;;;;;;;21.32;71.40;98175.50;4206880;28;20636;-85
2022/08/01 02:11:33;;;;;;;6.27;4.20;;;;;;;21.27;71.97;98189.28;4205110;28;20628;-85
2022/08/01 02:13:38;;;;;;;5.40;4.40;;;;;;;21.26;70.46;98175.34;4224711;28;20640;-85
2022/08/01 02:15:41;;;;;;;5.10;3.80;;;;;;;21.24;71.77;98174.69;4193520;28;20686;-85
2022/08/01 02:18:03;;;;;;;6.10;4.27;;;;;;;21.21;70.42;98180.34;4204105;28;20672;-85
2022/08/01 02:20:08;;;;;;;4.40;3.73;;;;;;;21.21;70.09;98178.50;4204810;28;20638;-85
2022/08/01 02:22:15;;;;;;;4.40;3.97;;;;;;;21.22;70.46;98177.50;4206366;28;21016;-85
2022/08/01 02:24:22;;;;;;;6.97;4.20;;;;;;;21.23;70.56;98183.63;4189792;28;20985;-85
2022/08/01 02:26:32;;;;;;;4.53;3.57;;;;;;;21.21;70.67;98185.63;4192426;28;20664;-85
2022/08/01 02:28:38;;;;;;;5.00;3.50;;;;;;;21.18;70.89;98188.63;4206808;28;20743;-85
2022/08/01 02:30:45;;;;;;;4.83;3.67;;;;;;;21.17;71.71;98186.97;4206646;28;20640;-85
2022/08/01 02:32:50;;;;;;;4.07;3.67;;;;;;;21.16;71.23;98186.13;4211403;28;20634;-85
2022/08/01 02:34:54;;;;;;;3.97;3.57;;;;;;;21.13;70.58;98196.28;4204056;28;20634;-85
2022/08/01 02:37:00;;;;;;;4.83;4.03;;;;;;;21.13;70.89;98193.63;4203240;28;20638;-85
2022/08/01 02:39:07;;;;;;;4.57;3.77;;;;;;;21.12;70.71;98190.13;4207219;28;20646;-85
2022/08/01 02:41:15;;;;;;;4.70;4.07;;;;;;;21.13;70.68;98197.09;4217258;28;20637;-85
2022/08/01 02:43:21;;;;;;;4.17;3.77;;;;;;;21.15;70.94;98199.56;4198296;28;20661;-85
2022/08/01 02:45:26;;;;;;;4.03;3.60;;;;;;;21.15;72.37;98200.41;4199000;28;20626;-85
2022/08/01 02:47:30;;;;;;;4.17;3.40;;;;;;;21.14;71.14;98196.09;4210146;28;21200;-85
2022/08/01 02:49:36;;;;;;;4.70;3.90;;;;;;;21.13;71.73;98201.56;4224411;28;21049;-85
2022/08/01 02:51:41;;;;;;;6.00;4.00;;;;;;;21.12;70.97;98195.41;4225545;28;20625;-85
2022/08/01 02:53:47;;;;;;;6.33;4.10;;;;;;;21.13;71.38;98204.22;4204899;28;20620;-85
2022/08/01 02:55:50;;;;;;;4.30;3.90;;;;;;;21.12;70.89;98200.72;4187873;28;22708;-85
2022/08/01 02:57:54;;;;;;;7.27;4.10;;;;;;;21.13;71.81;98204.22;4193035;28;20718;-85
2022/08/01 03:00:02;;;;;;;4.40;3.90;;;;;;;21.11;71.78;98199.09;4202828;28;20716;-85
2022/08/01 03:02:06;;;;;;;7.90;4.57;;;;;;;21.08;71.14;98198.56;4193467;28;20653;-85
2022/08/01 03:04:12;;;;;;;4.80;4.40;;;;;;;21.04;70.86;98200.75;4210115;28;20668;-85
2022/08/01 03:06:15;;;;;;;6.17;3.70;;;;;;;21.01;72.70;98201.06;4190466;28;21296;-85
2022/08/01 03:08:21;;;;;;;4.67;4.10;;;;;;;20.97;70.83;98199.75;4205745;28;20642;-85
2022/08/01 03:10:26;;;;;;;7.20;4.37;;;;;;;20.93;72.02;98197.63;4191040;28;20682;-85
2022/08/01 03:12:31;;;;;;;4.13;3.70;;;;;;;20.91;71.23;98203.09;4205730;28;20682;-85
2022/08/01 03:14:36;;;;;;;4.10;3.70;;;;;;;20.89;72.48;98198.94;4207499;28;20645;-85
2022/08/01 03:16:41;;;;;;;4.17;3.77;;;;;;;20.88;72.35;98199.91;4206575;28;20701;-85
2022/08/01 03:18:45;;;;;;;4.37;3.97;;;;;;;20.90;71.93;98195.28;4200738;28;20715;-84
2022/08/01 03:20:50;;;;;;;4.70;4.00;;;;;;;20.89;71.28;98205.03;4220398;28;20633;-85
2022/08/01 03:22:53;;;;;;;4.17;3.77;;;;;;;20.91;71.65;98204.88;4222416;27;20661;-85
2022/08/01 03:24:59;;;;;;;5.80;4.23;;;;;;;20.91;72.34;98205.72;4212113;28;20676;-85
2022/08/01 03:27:04;;;;;;;4.97;4.43;;;;;;;20.89;72.49;98209.53;4210144;28;21004;-84
2022/08/01 03:29:10;;;;;;;4.93;4.17;;;;;;;20.88;72.18;98206.06;4189159;28;20624;-85
2022/08/01 03:31:13;;;;;;;4.87;3.80;;;;;;;20.88;71.96;98206.06;4211015;28;20633;-85
2022/08/01 03:33:16;;;;;;;4.83;4.07;;;;;;;20.89;73.06;98205.03;4191378;28;20675;-85
2022/08/01 03:35:20;;;;;;;5.63;3.60;;;;;;;20.85;72.82;98208.19;4195251;28;20635;-84
2022/08/01 03:37:25;;;;;;;6.07;4.40;;;;;;;20.79;72.12;98208.03;4222357;28;20649;-85
2022/08/01 03:39:35;;;;;;;6.50;4.20;;;;;;;20.67;73.20;98204.00;4211121;28;21233;-85
2022/08/01 03:41:40;;;;;;;4.60;4.20;;;;;;;20.58;73.89;98212.94;4196485;28;20617;-85
2022/08/01 03:43:49;;;;;;;5.23;3.93;;;;;;;20.52;74.64;98210.94;4194604;28;20657;-85
2022/08/01 03:45:53;;;;;;;4.93;4.23;;;;;;;20.48;75.23;98209.63;4222328;28;20691;-85
2022/08/01 03:48:00;;;;;;;6.70;3.80;;;;;;;20.45;74.86;98210.78;4208941;28;21258;-85
2022/08/01 03:50:05;;;;;;;5.67;3.90;;;;;;;20.44;73.41;98206.44;4191032;28;20696;-85
2022/08/01 03:52:14;;;;;;;5.00;4.20;;;;;;;20.46;73.81;98217.75;4209199;28;21227;-85
2022/08/01 03:54:21;;;;;;;4.90;4.40;;;;;;;20.47;73.93;98216.72;4205365;28;20633;-85
2022/08/01 03:56:25;;;;;;;6.33;5.00;;;;;;;20.43;73.25;98217.22;4205221;28;20976;-85
2022/08/01 03:58:28;;;;;;;6.00;4.40;;;;;;;20.35;73.93;98214.56;4205575;28;20970;-84
2022/08/01 04:00:33;;;;;;;5.37;4.07;;;;;;;20.33;74.72;98206.78;4212588;28;20636;-85
2022/08/01 04:02:39;;;;;;;6.37;4.53;;;;;;;20.36;74.01;98218.88;4200062;28;20637;-85
2022/08/01 04:04:43;;;;;;;4.60;4.20;;;;;;;20.37;73.96;98213.41;4205231;28;20712;-85
2022/08/01 04:06:50;;;;;;;7.40;3.93;;;;;;;20.37;74.57;98210.75;4214347;28;21090;-85
2022/08/01 04:08:59;;;;;;;4.67;4.13;;;;;;;20.41;75.34;98219.22;4207844;28;20619;-85
2022/08/01 04:11:02;;;;;;;4.60;4.20;;;;;;;20.45;73.55;98226.69;4223015;28;21310;-85
2022/08/01 04:13:05;;;;;;;5.10;4.60;;;;;;;20.49;74.49;98228.03;4209655;28;20726;-85
2022/08/01 04:15:09;;;;;;;4.30;3.83;;;;;;;20.49;74.02;98217.41;4212988;28;20640;-85
2022/08/01 04:17:13;;;;;;;7.87;4.63;;;;;;;20.46;74.99;98219.53;4208780;28;20646;-85
2022/08/01 04:19:16;;;;;;;4.93;4.53;;;;;;;20.43;74.82;98220.72;4196329;28;21244;-86
2022/08/01 04:21:23;;;;;;;5.70;4.90;;;;;;;20.36;75.82;98217.03;4223889;28;20628;-85
2022/08/01 04:23:28;;;;;;;5.37;4.70;;;;;;;20.34;74.79;98226.13;4208951;28;20750;-85
2022/08/01 04:25:34;;;;;;;8.20;4.83;;;;;;;20.29;74.87;98227.63;4209257;28;20638;-85
2022/08/01 04:27:42;;;;;;;5.40;4.77;;;;;;;20.27;75.29;98232.28;4210784;28;20637;-84
2022/08/01 04:29:54;;;;;;;5.47;4.93;;;;;;;20.21;75.62;98233.72;4210228;28;20652;-87
2022/08/01 04:31:57;;;;;;;6.57;4.90;;;;;;;20.16;76.45;98235.19;4210574;28;21891;-87
2022/08/01 04:34:04;;;;;;;5.27;4.67;;;;;;;20.15;76.93;98241.50;4192118;28;20632;-86
2022/08/01 04:36:09;;;;;;;5.10;4.60;;;;;;;20.14;76.35;98242.47;4207555;28;20742;-86
2022/08/01 04:38:16;;;;;;;9.30;4.93;;;;;;;20.13;76.00;98241.66;4210846;28;21277;-86
2022/08/01 04:40:21;;;;;;;7.63;5.00;;;;;;;20.14;76.75;98237.19;4210651;28;20756;-87
2022/08/01 04:42:25;;;;;;;9.47;5.17;;;;;;;20.12;77.13;98241.81;4211650;28;21256;-86
2022/08/01 04:44:35;;;;;;;8.13;5.07;;;;;;;20.08;77.06;98237.81;4211696;28;20759;-86
2022/08/01 04:46:38;;;;;;;13.40;6.47;;;;;;;20.07;77.09;98236.16;4209264;28;20638;-87
2022/08/01 04:48:42;;;;;;;9.40;5.70;;;;;;;20.07;77.70;98233.50;4195595;28;20648;-86
2022/08/01 04:50:46;;;;;;;12.23;6.07;;;;;;;20.09;78.34;98245.59;4211942;28;21187;-87
2022/08/01 04:52:51;;;;;;;7.80;5.17;;;;;;;20.10;78.47;98246.41;4222070;28;20630;-87
2022/08/01 04:54:54;;;;;;;6.93;5.30;;;;;;;20.12;78.22;98234.69;4229252;27;20651;-86
2022/08/01 04:56:59;;;;;;;9.97;4.87;;;;;;;20.18;78.02;98241.19;4206224;28;22039;-86
2022/08/01 05:01:23;;;;;;;5.37;4.87;;;;;;;20.31;77.21;98236.25;4227100;27;20686;-87
2022/08/01 05:03:26;;;;;;;5.63;4.53;;;;;;;20.36;76.93;98246.19;4210314;28;20661;-87
2022/08/01 05:05:30;;;;;;;5.00;4.33;;;;;;;20.41;76.77;98246.53;4208545;28;20630;-86
2022/08/01 05:07:36;;;;;;;5.33;4.60;;;;;;;20.48;77.76;98244.91;4226470;27;20708;-87
2022/08/01 05:09:47;;;;;;;6.63;4.67;;;;;;;20.54;75.89;98246.91;4192531;28;20629;-87
2022/08/01 05:11:50;;;;;;;6.47;5.13;;;;;;;20.60;76.68;98245.44;4205059;28;21297;-86
2022/08/01 05:13:54;;;;;;;6.93;4.97;;;;;;;20.65;77.50;98243.94;4209163;28;20753;-87
2022/08/01 05:15:57;;;;;;;5.00;4.40;;;;;;;20.72;76.34;98245.00;4223615;28;20635;-87
2022/08/01 05:18:01;;;;;;;7.10;4.70;;;;;;;20.81;77.69;98244.00;4203889;28;20671;-86
2022/08/01 05:20:08;;;;;;;11.30;5.30;;;;;;;20.92;76.75;98249.00;4190992;28;20663;-87
2022/08/01 05:22:11;;;;;;;5.20;4.70;;;;;;;21.03;76.96;98251.31;4208277;28;21230;-87
2022/08/01 05:24:16;;;;;;;5.60;5.10;;;;;;;21.13;76.00;98249.34;4196236;28;20724;-87
2022/08/01 05:26:19;;;;;;;6.70;4.80;;;;;;;21.27;76.72;98259.28;4208794;28;20752;-86
2022/08/01 05:28:23;;;;;;;7.23;4.70;;;;;;;21.37;76.53;98247.50;4206304;28;20676;-87
2022/08/01 05:30:26;;;;;;;6.90;5.00;;;;;;;21.42;75.65;98251.31;4191993;28;20752;-87
2022/08/01 05:32:30;;;;;;;5.03;4.57;;;;;;;21.48;75.45;98263.09;4192309;28;20638;-87
2022/08/01 05:34:33;;;;;;;9.90;4.90;;;;;;;21.49;75.28;98259.47;4229224;28;20656;-87
2022/08/01 05:36:37;;;;;;;8.83;6.07;;;;;;;21.55;75.95;98262.25;4213949;28;20649;-87
2022/08/01 05:38:40;;;;;;;5.63;5.03;;;;;;;21.70;76.20;98263.25;4230486;28;20988;-87
2022/08/01 05:40:45;;;;;;;8.67;6.50;;;;;;;21.92;76.60;98251.88;4207669;28;20621;-87
2022/08/01 05:42:48;;;;;;;5.87;5.27;;;;;;;22.23;75.54;98262.41;4216038;28;20626;-87
2022/08/01 05:44:51;;;;;;;5.97;4.83;;;;;;;22.59;74.57;98268.91;4206345;28;21002;-87
2022/08/01 05:46:55;;;;;;;6.17;5.10;;;;;;;22.88;72.77;98266.41;4212434;28;20623;-86
2022/08/01 05:48:58;;;;;;;7.17;4.90;;;;;;;23.13;72.84;98274.06;4196914;28;20630;-86
2022/08/01 05:51:01;;;;;;;5.57;5.07;;;;;;;23.39;72.65;98267.34;4209941;28;20651;-87
2022/08/01 05:53:04;;;;;;;6.00;5.40;;;;;;;23.46;71.63;98267.47;4196073;28;20627;-87
2022/08/01 05:55:09;;;;;;;7.37;5.40;;;;;;;23.39;71.92;98267.34;4194378;28;20631;-84
2022/08/01 05:57:13;;;;;;;5.83;5.23;;;;;;;23.40;71.72;98271.69;4210462;28;20647;-86
2022/08/01 05:59:17;;;;;;;7.10;5.13;;;;;;;23.38;70.88;98270.22;4211795;28;20662;-83
2022/08/01 06:01:20;;;;;;;5.67;4.90;;;;;;;23.42;72.46;98279.47;4194959;28;20650;-84
2022/08/01 06:03:24;;;;;;;5.73;4.97;;;;;;;23.81;71.06;98283.66;4195014;28;20641;-84
2022/08/01 06:05:27;;;;;;;6.93;5.00;;;;;;;24.13;70.32;98284.16;4196929;28;20692;-84
2022/08/01 06:07:30;;;;;;;5.63;4.67;;;;;;;24.15;69.25;98282.09;4194926;28;20677;-84
2022/08/01 06:09:33;;;;;;;6.43;4.87;;;;;;;24.03;69.67;98280.09;4203507;28;20618;-84
2022/08/01 06:11:36;;;;;;;5.37;4.77;;;;;;;23.97;69.57;98278.16;4212146;28;21207;-84
2022/08/01 06:13:41;;;;;;;5.43;4.93;;;;;;;24.05;70.34;98288.72;4206689;28;20627;-84
2022/08/01 06:15:51;;;;;;;8.90;5.10;;;;;;;24.33;69.39;98290.59;4225535;28;20644;-84
2022/08/01 06:17:54;;;;;;;5.23;4.70;;;;;;;24.57;67.55;98290.28;4190782;28;20661;-84
2022/08/01 06:19:57;;;;;;;6.90;5.00;;;;;;;24.86;67.49;98294.53;4211854;28;20663;-84
2022/08/01 06:22:00;;;;;;;5.23;4.73;;;;;;;25.00;66.62;98300.88;4195770;28;20629;-84
2022/08/01 06:24:04;;;;;;;7.80;4.40;;;;;;;24.99;67.71;98293.88;4195282;28;20658;-84
2022/08/01 06:26:07;;;;;;;6.70;4.50;;;;;;;25.03;68.17;98290.63;4192521;28;20657;-84
2022/08/01 06:28:10;;;;;;;5.23;4.20;;;;;;;25.02;67.17;98293.50;4193044;28;20638;-84
2022/08/01 06:30:15;;;;;;;4.70;4.17;;;;;;;25.27;67.19;98301.81;4225570;27;20717;-84
2022/08/01 06:32:18;;;;;;;5.70;4.50;;;;;;;25.45;66.43;98302.16;4208331;28;20643;-85
2022/08/01 06:34:29;;;;;;;4.47;4.07;;;;;;;25.63;66.08;98295.34;4191601;28;20626;-84
2022/08/01 06:36:32;;;;;;;5.23;4.43;;;;;;;25.75;65.37;98290.31;4193284;28;20722;-84
2022/08/01 06:38:35;;;;;;;5.07;4.20;;;;;;;25.89;65.25;98294.75;4208879;28;20639;-84
2022/08/01 06:40:39;;;;;;;4.73;4.30;;;;;;;25.80;64.68;98294.09;4209690;28;20641;-83
2022/08/01 06:42:42;;;;;;;7.00;4.57;;;;;;;25.86;65.70;98295.13;4208189;28;20634;-85
2022/08/01 06:44:45;;;;;;;5.80;4.13;;;;;;;25.91;66.33;98298.06;4193476;28;20627;-85
2022/08/01 06:46:50;;;;;;;5.03;3.87;;;;;;;26.14;65.54;98299.44;4206172;28;20653;-84
2022/08/01 06:48:53;;;;;;;4.40;4.00;;;;;;;26.50;64.17;98300.09;4206123;28;21205;-85
2022/08/01 06:51:08;;;;;;;4.50;4.10;;;;;;;26.47;64.16;98295.16;4192483;28;20645;-85
2022/08/01 06:53:11;;;;;;;7.13;4.00;;;;;;;26.46;64.42;98299.69;4221750;27;20649;-85
2022/08/01 06:55:14;;;;;;;5.57;4.40;;;;;;;26.85;65.08;98295.31;4205612;28;21229;-85
2022/08/01 06:57:17;;;;;;;5.63;4.03;;;;;;;27.36;63.87;98307.22;4207948;28;21032;-86
2022/08/01 06:59:20;;;;;;;4.90;3.60;;;;;;;27.57;61.34;98302.53;4203623;28;20665;-85
2022/08/01 07:01:23;;;;;;;3.90;3.50;;;;;;;27.74;62.40;98304.59;4204961;28;20638;-85
2022/08/01 07:03:28;;;;;;;10.30;9.20;;;;;;;27.91;61.75;98305.00;4201620;28;20679;-85
2022/08/01 07:05:51;;;;;;;6.53;4.17;;;;;;;28.12;61.20;98308.31;4203965;28;20638;-85
2022/08/01 07:07:55;;;;;;;4.73;3.97;;;;;;;28.42;62.07;98314.88;4210451;28;20735;-85
2022/08/01 07:09:58;;;;;;;5.77;3.80;;;;;;;28.58;60.77;98313.38;4211977;28;20996;-85
2022/08/01 07:12:01;;;;;;;4.37;3.97;;;;;;;28.71;60.82;98304.47;4221479;28;20986;-85
2022/08/01 07:14:04;;;;;;;4.40;3.83;;;;;;;28.87;59.97;98303.97;4202511;28;21224;-85
2022/08/01 07:16:07;;;;;;;4.37;3.77;;;;;;;28.97;59.97;98307.03;4190962;28;20636;-85
2022/08/01 07:18:11;;;;;;;4.97;3.83;;;;;;;29.06;60.31;98307.41;4219245;28;20634;-85
2022/08/01 07:20:15;;;;;;;6.73;4.30;;;;;;;29.09;59.55;98306.13;4209177;28;20676;-87
2022/08/01 07:22:18;;;;;;;5.03;3.73;;;;;;;29.02;59.43;98298.13;4225045;28;20630;-86
2022/08/01 07:24:25;;;;;;;7.00;3.97;;;;;;;29.17;59.71;98300.53;4207068;28;21003;-87
2022/08/01 07:26:30;;;;;;;6.50;3.97;;;;;;;29.37;59.17;98299.38;4194252;28;20663;-87
2022/08/01 07:28:34;;;;;;;4.30;3.90;;;;;;;29.38;58.87;98290.28;4206557;28;20751;-86
2022/08/01 07:30:46;;;;;;;4.40;4.00;;;;;;;29.48;58.58;98290.59;4190030;28;20738;-87
2022/08/01 07:32:49;;;;;;;6.40;3.67;;;;;;;29.71;58.98;98289.00;4190248;28;20731;-86
2022/08/01 07:34:52;;;;;;;4.10;3.70;;;;;;;29.96;57.63;98301.44;4207711;28;20674;-87
2022/08/01 07:36:56;;;;;;;5.30;4.00;;;;;;;30.15;57.93;98302.28;4190288;28;20683;-87
2022/08/01 07:38:59;;;;;;;4.23;3.83;;;;;;;30.13;57.84;98302.50;4204029;28;20634;-86
2022/08/01 07:41:03;;;;;;;4.27;3.53;;;;;;;29.81;58.34;98285.84;4204157;28;20642;-87
2022/08/01 07:43:06;;;;;;;2.83;2.43;;;;;;;29.60;58.80;98283.47;4206804;28;20634;-87
2022/08/01 07:45:10;;;;;;;2.57;2.30;;;;;;;29.75;59.20;98284.00;4207477;28;21208;-87
2022/08/01 07:47:13;;;;;;;5.10;3.10;;;;;;;30.06;59.19;98285.59;4218114;28;20737;-87
2022/08/01 07:49:17;;;;;;;3.33;2.37;;;;;;;30.31;58.62;98283.69;4221593;28;20644;-86
2022/08/01 07:51:20;;;;;;;3.80;2.57;;;;;;;30.49;57.09;98279.16;4205252;28;20688;-86
2022/08/01 07:53:24;;;;;;;3.30;2.60;;;;;;;30.70;57.39;98270.63;4205320;28;20665;-86
2022/08/01 07:55:27;;;;;;;2.53;2.33;;;;;;;30.87;56.89;98274.38;4199456;28;20737;-87
2022/08/01 07:57:31;;;;;;;4.00;2.83;;;;;;;31.06;56.92;98275.97;4204197;28;20650;-87
2022/08/01 07:59:34;;;;;;;4.03;2.83;;;;;;;31.05;56.00;98285.13;4203974;28;20676;-87
2022/08/01 08:01:37;;;;;;;3.37;2.67;;;;;;;31.11;55.92;98276.13;4210993;28;20618;-87
2022/08/01 08:03:40;;;;;;;3.10;2.70;;;;;;;31.11;55.90;98284.22;4208941;28;20668;-86
2022/08/01 08:05:43;;;;;;;3.80;2.83;;;;;;;31.23;55.51;98280.50;4190481;28;20750;-87
2022/08/01 08:08:02;;;;;;;3.00;2.60;;;;;;;31.46;56.99;98281.41;4204683;28;21092;-87
2022/08/01 08:10:07;;;;;;;3.00;2.67;;;;;;;31.69;55.81;98283.34;4190959;28;20715;-87
2022/08/01 08:12:11;;;;;;;6.73;2.40;;;;;;;31.85;55.16;98283.47;4222687;28;20635;-88
2022/08/01 08:14:15;;;;;;;4.73;3.00;;;;;;;31.92;54.75;98287.75;4192976;28;20739;-90
2022/08/01 08:16:18;;;;;;;3.10;2.70;;;;;;;32.00;55.63;98281.19;4208199;28;21038;-88
2022/08/01 08:18:21;;;;;;;6.60;2.80;;;;;;;32.13;53.75;98286.31;4205905;28;20639;-88
2022/08/01 08:20:26;;;;;;;3.07;2.30;;;;;;;32.02;54.35;98277.16;4204180;28;20630;-88
2022/08/01 08:22:30;;;;;;;5.00;2.80;;;;;;;32.17;54.85;98287.50;4217682;28;20629;-87
2022/08/01 08:24:33;;;;;;;3.30;2.03;;;;;;;32.00;54.85;98275.78;4200867;28;20629;-87
2022/08/01 08:26:37;;;;;;;3.83;2.40;;;;;;;31.86;54.99;98271.63;4192985;28;20712;-88
2022/08/01 08:28:42;;;;;;;3.17;2.33;;;;;;;31.92;55.05;98266.13;4215172;28;21225;-87
2022/08/01 08:30:45;;;;;;;3.00;2.53;;;;;;;31.66;54.63;98273.00;4204459;28;21259;-87
2022/08/01 08:32:48;;;;;;;4.37;3.17;;;;;;;31.33;54.60;98269.94;4208231;28;20737;-87
2022/08/01 08:34:51;;;;;;;4.60;2.60;;;;;;;31.14;56.34;98263.00;4207266;28;20669;-87
2022/08/01 08:36:55;;;;;;;4.07;2.70;;;;;;;30.93;56.09;98250.00;4188996;28;20627;-87
2022/08/01 08:39:01;;;;;;;3.00;2.67;;;;;;;30.59;55.64;98257.06;4203529;28;20658;-87
2022/08/01 08:41:05;;;;;;;2.80;2.50;;;;;;;30.38;56.66;98254.81;4203222;28;20619;-87
2022/08/01 08:43:09;;;;;;;4.23;2.37;;;;;;;30.43;57.93;98253.13;4221499;28;20670;-87
2022/08/01 08:45:13;;;;;;;2.80;2.53;;;;;;;30.76;56.93;98252.69;4220278;28;20665;-87
2022/08/01 08:47:16;;;;;;;2.70;2.43;;;;;;;30.91;56.18;98262.06;4209756;28;20646;-87
2022/08/01 08:49:27;;;;;;;4.47;2.80;;;;;;;31.30;56.96;98256.94;4192613;28;21107;-87
2022/08/01 08:51:40;;;;;;;3.13;2.60;;;;;;;31.29;55.07;98259.84;4208296;28;20626;-87
2022/08/01 08:53:44;;;;;;;3.63;2.60;;;;;;;31.14;55.65;98252.19;4191110;28;20640;-87
2022/08/01 08:55:47;;;;;;;3.00;2.70;;;;;;;31.12;56.68;98254.31;4203535;28;20641;-87
2022/08/01 08:58:00;;;;;;;3.47;2.57;;;;;;;31.04;55.49;98251.09;4204273;28;20689;-88
2022/08/01 09:00:06;;;;;;;3.37;2.57;;;;;;;31.08;55.12;98247.72;4221607;28;20699;-86
2022/08/01 09:02:10;;;;;;;3.77;2.17;;;;;;;30.92;56.48;98254.81;4204856;28;20635;-86
2022/08/01 09:04:15;;;;;;;3.07;2.50;;;;;;;30.56;56.52;98247.56;4219904;28;21216;-86
2022/08/01 09:06:18;;;;;;;3.77;2.60;;;;;;;30.21;56.76;98252.94;4191291;28;20643;-86
2022/08/01 09:08:21;;;;;;;2.67;2.47;;;;;;;30.13;57.85;98245.97;4216896;27;20706;-87
2022/08/01 09:10:24;;;;;;;5.37;2.30;;;;;;;30.43;57.65;98255.81;4202630;28;21279;-86
2022/08/01 09:12:27;;;;;;;2.73;2.40;;;;;;;30.31;57.29;98254.06;4207180;28;20638;-85
2022/08/01 09:14:31;;;;;;;3.03;2.73;;;;;;;30.37;57.12;98246.97;4216789;28;20649;-87
2022/08/01 09:16:37;;;;;;;4.37;2.63;;;;;;;30.45;56.74;98252.91;4221090;28;20686;-87
2022/08/01 09:18:43;;;;;;;3.27;2.97;;;;;;;30.83;57.48;98251.56;4194404;28;20718;-87
2022/08/01 09:20:46;;;;;;;4.30;2.80;;;;;;;30.82;56.79;98252.59;4207660;28;20641;-87
2022/08/01 09:22:49;;;;;;;3.47;2.80;;;;;;;30.96;57.01;98262.22;4221744;28;20643;-87
2022/08/01 09:25:00;;;;;;;2.80;2.60;;;;;;;30.92;56.81;98253.75;4209127;28;20680;-87
2022/08/01 09:27:17;;;;;;;3.70;2.67;;;;;;;30.73;56.50;98248.59;4219124;28;21059;-87
2022/08/01 09:29:25;;;;;;;3.23;2.57;;;;;;;30.67;57.36;98256.75;4210666;28;20626;-85
2022/08/01 09:31:43;;;;;;;3.77;3.03;;;;;;;30.56;57.39;98252.94;4204959;28;20631;-86
2022/08/01 09:33:51;;;;;;;3.10;2.60;;;;;;;30.49;57.58;98252.22;4219568;28;21205;-86
2022/08/01 09:35:56;;;;;;;3.27;2.50;;;;;;;30.38;56.88;98257.53;4210961;28;20666;-88
2022/08/01 09:38:14;;;;;;;2.97;2.40;;;;;;;30.59;57.53;98249.78;4210667;28;20683;-87
2022/08/01 09:40:17;;;;;;;3.20;2.40;;;;;;;30.50;56.93;98253.84;4204863;28;21212;-86
2022/08/01 09:42:23;;;;;;;6.17;2.47;;;;;;;30.35;57.57;98257.16;4204632;28;20647;-87
2022/08/01 09:44:40;;;;;;;4.00;2.77;;;;;;;30.54;57.17;98256.94;4225110;28;20626;-87
2022/08/01 09:46:52;;;;;;;4.43;2.60;;;;;;;31.04;56.73;98262.72;4209504;28;20649;-86
2022/08/01 09:48:59;;;;;;;2.90;2.60;;;;;;;31.27;55.67;98268.16;4205510;28;20634;-86
2022/08/01 09:51:03;;;;;;;2.73;2.53;;;;;;;31.25;56.04;98264.91;4217652;28;20678;-87
2022/08/01 09:53:12;;;;;;;2.90;2.60;;;;;;;31.30;56.02;98266.91;4206066;28;21208;-86